Terminal Aerodrome Forecast
Issued by NWS

Home | Current Version | Previous Version | Text Only | Print | Product List | Glossary Off
Versions: 1 2 3 4 5 6 7 8 9 10 11 12

000
FTUS41 KCLE 020521
TAFFDY
TAF
KFDY 020521Z 0206/0306 VRB03KT P6SM OVC250
     FM020900 02003KT 6SM BR SCT012 BKN250
      TEMPO 0209/0213 4SM BR BKN012
     FM021300 06008KT 6SM BR SCT012 BKN035
     FM021500 06008KT P6SM SCT045
     FM030100 05003KT P6SM SKC=

USA.gov is the U.S. government's official web portal to all federal, state and local government web resources and services.